Time;durP1;ratioP1;P1;durP2;ratioP2;P2;SDS_P1;SDS_P2;PMS_P1;PMS_P2;Temp;Humidity;BMP_temperature;BMP_pressure;BME280_temperature;BME280_humidity;BME280_pressure;Samples;Min_cycle;Max_cycle;Signal;HPM_P1;HPM_P2
2023/09/29 00:01:35;;;;;;;8.57;6.60;;;18.60;99.90;;;;;;4952827;28;20051;-78
2023/09/29 00:04:06;;;;;;;8.40;6.05;;;18.60;99.90;;;;;;4938019;28;20040;-78
2023/09/29 00:06:32;;;;;;;7.65;6.38;;;18.60;99.90;;;;;;5023800;28;20060;-78
2023/09/29 00:09:06;;;;;;;12.40;6.75;;;18.50;99.90;;;;;;5025839;28;20153;-77
2023/09/29 00:11:32;;;;;;;9.27;6.38;;;18.50;99.90;;;;;;4973382;28;20029;-77
2023/09/29 00:13:58;;;;;;;7.18;6.00;;;18.40;99.90;;;;;;4931579;28;20038;-77
2023/09/29 00:16:27;;;;;;;8.73;7.00;;;18.50;99.90;;;;;;4939422;28;20016;-77
2023/09/29 00:18:55;;;;;;;9.07;6.45;;;18.50;99.90;;;;;;4939852;28;20028;-78
2023/09/29 00:21:21;;;;;;;9.68;6.72;;;18.50;99.90;;;;;;4951497;28;20090;-77
2023/09/29 00:23:46;;;;;;;10.07;6.50;;;18.40;99.90;;;;;;4929397;28;20499;-77
2023/09/29 00:26:12;;;;;;;8.13;6.65;;;18.40;99.90;;;;;;4949043;28;20080;-77
2023/09/29 00:28:38;;;;;;;8.57;6.80;;;18.40;99.90;;;;;;4933563;28;20062;-78
2023/09/29 00:31:06;;;;;;;9.43;6.75;;;18.40;99.90;;;;;;4937438;28;20383;-77
2023/09/29 00:33:32;;;;;;;9.73;6.90;;;18.30;99.90;;;;;;4927928;28;20024;-77
2023/09/29 00:36:00;;;;;;;9.30;6.47;;;18.20;99.90;;;;;;4957202;28;20033;-77
2023/09/29 00:38:26;;;;;;;8.10;7.35;;;18.20;99.90;;;;;;4925108;28;20031;-77
2023/09/29 00:40:52;;;;;;;11.68;6.80;;;18.30;99.90;;;;;;4937472;28;20509;-77
2023/09/29 00:43:17;;;;;;;8.13;6.80;;;18.20;99.90;;;;;;4939861;28;20453;-77
2023/09/29 00:45:44;;;;;;;9.48;6.93;;;18.20;1.00;;;;;;4946798;28;20506;-77
2023/09/29 00:48:10;;;;;;;8.45;6.93;;;18.20;1.00;;;;;;5025966;28;20431;-77
2023/09/29 00:50:39;;;;;;;8.75;6.57;;;18.20;1.00;;;;;;5010865;28;20034;-77
2023/09/29 00:53:11;;;;;;;6.95;6.00;;;18.20;1.00;;;;;;5004356;28;20026;-77
2023/09/29 00:55:40;;;;;;;7.72;6.93;;;18.20;1.00;;;;;;4938921;28;20078;-77
2023/09/29 00:58:06;;;;;;;8.65;7.32;;;18.10;1.00;;;;;;4984763;28;20503;-77
2023/09/29 01:00:32;;;;;;;9.38;6.35;;;18.10;1.00;;;;;;5021784;28;20068;-77
2023/09/29 01:03:06;;;;;;;15.35;8.05;;;18.10;1.00;;;;;;5005854;28;20109;-77
2023/09/29 01:05:46;;;;;;;7.45;6.68;;;18.10;1.00;;;;;;4933759;28;20038;-77
2023/09/29 01:08:15;;;;;;;9.02;6.90;;;18.10;1.00;;;;;;4937000;28;20066;-77
2023/09/29 01:10:42;;;;;;;8.95;6.95;;;18.10;1.00;;;;;;5003696;28;20037;-77
2023/09/29 01:13:12;;;;;;;9.10;6.47;;;18.10;1.00;;;;;;5025189;28;20500;-77
2023/09/29 01:15:39;;;;;;;8.00;7.05;;;18.10;1.00;;;;;;5000365;28;20033;-77
2023/09/29 01:18:09;;;;;;;7.78;6.30;;;18.10;1.00;;;;;;5023396;28;20077;-77
2023/09/29 01:20:37;;;;;;;9.02;6.70;;;18.20;1.00;;;;;;5003674;28;20496;-77
2023/09/29 01:23:04;;;;;;;10.32;6.75;;;18.10;1.00;;;;;;5025848;28;20145;-77
2023/09/29 01:25:30;;;;;;;10.88;6.50;;;18.10;1.00;;;;;;5018857;28;20034;-77
2023/09/29 01:27:56;;;;;;;14.23;7.45;;;18.10;1.00;;;;;;5021587;28;20022;-77
2023/09/29 01:30:24;;;;;;;10.13;6.82;;;18.10;1.00;;;;;;4998168;28;20030;-77
2023/09/29 01:32:51;;;;;;;9.90;7.07;;;18.10;1.00;;;;;;5007868;28;20559;-77
2023/09/29 01:35:18;;;;;;;7.53;6.78;;;18.10;1.00;;;;;;5025221;28;20075;-77
2023/09/29 01:37:47;;;;;;;9.35;6.70;;;18.20;1.00;;;;;;5019695;28;20029;-77
2023/09/29 01:40:17;;;;;;;10.30;7.00;;;18.20;1.00;;;;;;5024063;28;20034;-77
2023/09/29 01:42:44;;;;;;;8.93;6.10;;;18.20;1.00;;;;;;5004151;28;20398;-77
2023/09/29 01:45:12;;;;;;;9.23;6.57;;;18.10;1.00;;;;;;5016850;28;20018;-77
2023/09/29 01:47:39;;;;;;;8.77;6.45;;;18.10;1.00;;;;;;4979780;28;20039;-77
2023/09/29 01:50:06;;;;;;;9.50;6.90;;;18.10;1.00;;;;;;4998806;28;20026;-77
2023/09/29 01:52:32;;;;;;;10.40;6.60;;;18.00;1.00;;;;;;4990402;28;20038;-77
2023/09/29 01:54:58;;;;;;;12.93;7.28;;;18.00;1.00;;;;;;4925655;28;20024;-77
2023/09/29 01:57:23;;;;;;;7.03;6.43;;;18.00;1.00;;;;;;4954290;28;20036;-77
2023/09/29 01:59:49;;;;;;;7.43;6.70;;;18.00;1.00;;;;;;4925387;28;20020;-77
2023/09/29 02:02:15;;;;;;;10.27;6.90;;;18.00;1.00;;;;;;4945343;28;20437;-77
2023/09/29 02:04:41;;;;;;;6.53;5.95;;;18.00;1.00;;;;;;4926043;28;20035;-77
2023/09/29 02:07:09;;;;;;;9.25;6.88;;;18.00;1.00;;;;;;4989960;28;20033;-77
2023/09/29 02:09:34;;;;;;;11.60;7.30;;;18.00;1.00;;;;;;5017422;28;20025;-77
2023/09/29 02:12:01;;;;;;;9.35;7.22;;;18.00;1.00;;;;;;4976051;28;20036;-77
2023/09/29 02:14:28;;;;;;;10.07;7.28;;;18.10;1.00;;;;;;4924490;28;20380;-77
2023/09/29 02:16:54;;;;;;;7.32;6.60;;;18.10;1.00;;;;;;4957673;28;20438;-77
2023/09/29 02:19:20;;;;;;;7.82;6.63;;;18.00;1.00;;;;;;4923666;28;20119;-77
2023/09/29 02:21:45;;;;;;;7.32;6.63;;;18.00;1.00;;;;;;4995953;28;20419;-77
2023/09/29 02:24:12;;;;;;;8.95;6.53;;;18.00;1.00;;;;;;4930494;28;20024;-77
2023/09/29 02:26:38;;;;;;;13.05;7.05;;;18.00;1.00;;;;;;5011624;28;20030;-77
2023/09/29 02:29:10;;;;;;;9.95;6.57;;;18.10;1.00;;;;;;5016760;28;20446;-77
2023/09/29 02:31:36;;;;;;;8.85;6.55;;;18.10;1.00;;;;;;5025321;28;20029;-77
2023/09/29 02:34:03;;;;;;;10.13;6.88;;;18.10;1.00;;;;;;5004878;28;20033;-77
2023/09/29 02:36:29;;;;;;;9.82;6.97;;;18.00;1.00;;;;;;5003111;28;20034;-77
2023/09/29 02:38:55;;;;;;;7.57;6.45;;;18.10;1.00;;;;;;5023632;28;20384;-77
2023/09/29 02:41:21;;;;;;;9.68;6.50;;;18.00;1.00;;;;;;5016140;28;20068;-77
2023/09/29 02:43:47;;;;;;;8.15;6.68;;;18.00;1.00;;;;;;5003408;28;20041;-77
2023/09/29 02:46:16;;;;;;;11.40;7.35;;;18.00;1.00;;;;;;5020240;28;20088;-77
2023/09/29 02:48:42;;;;;;;8.32;6.78;;;18.00;1.00;;;;;;5021369;28;20029;-77
2023/09/29 02:51:18;;;;;;;8.77;6.45;;;17.90;1.00;;;;;;4988182;28;20503;-77
2023/09/29 02:53:47;;;;;;;8.52;6.97;;;17.90;1.00;;;;;;4984767;28;20435;-77
2023/09/29 02:56:12;;;;;;;8.15;6.35;;;17.90;1.00;;;;;;5020978;28;20078;-77
2023/09/29 02:58:39;;;;;;;7.57;6.78;;;17.90;1.00;;;;;;5020929;28;20657;-77
2023/09/29 03:01:12;;;;;;;8.82;6.22;;;17.90;1.00;;;;;;5020205;28;20021;-77
2023/09/29 03:03:45;;;;;;;8.27;6.18;;;17.90;1.00;;;;;;5020468;28;20024;-77
2023/09/29 03:06:16;;;;;;;7.78;6.97;;;17.90;1.00;;;;;;5017442;28;20029;-77
2023/09/29 03:08:41;;;;;;;8.10;6.22;;;17.90;1.00;;;;;;4982326;28;20024;-76
2023/09/29 03:11:12;;;;;;;11.13;7.00;;;17.90;1.00;;;;;;4944729;28;20025;-77
2023/09/29 03:13:40;;;;;;;8.60;6.75;;;17.80;1.00;;;;;;5003379;28;20032;-77
2023/09/29 03:16:07;;;;;;;11.25;6.45;;;17.80;1.00;;;;;;5018426;28;20026;-77
2023/09/29 03:18:34;;;;;;;7.80;7.00;;;17.80;1.00;;;;;;5019493;28;20018;-77
2023/09/29 03:21:01;;;;;;;9.75;7.00;;;17.80;1.00;;;;;;5013902;28;20068;-77
2023/09/29 03:23:28;;;;;;;7.15;6.50;;;17.80;1.00;;;;;;4927878;28;20106;-77
2023/09/29 03:25:55;;;;;;;8.95;6.85;;;17.80;1.00;;;;;;5019148;28;20034;-77
2023/09/29 03:28:21;;;;;;;10.52;6.35;;;17.70;1.00;;;;;;5020731;28;20025;-77
2023/09/29 03:30:46;;;;;;;7.60;6.20;;;17.80;1.00;;;;;;5017825;28;20022;-77
2023/09/29 03:33:13;;;;;;;8.55;6.75;;;17.80;1.00;;;;;;4926349;28;20024;-77
2023/09/29 03:35:40;;;;;;;9.82;6.50;;;17.80;1.00;;;;;;4953600;28;20025;-77
2023/09/29 03:38:06;;;;;;;7.70;6.05;;;17.80;1.00;;;;;;4943203;28;20439;-77
2023/09/29 03:40:32;;;;;;;7.05;6.13;;;17.80;1.00;;;;;;5000264;28;20038;-77
2023/09/29 03:42:58;;;;;;;10.45;7.00;;;17.80;1.00;;;;;;5019285;28;20049;-77
2023/09/29 03:45:25;;;;;;;7.85;6.72;;;17.80;1.00;;;;;;5018639;28;20025;-77
2023/09/29 03:47:51;;;;;;;9.40;6.97;;;17.80;1.00;;;;;;5021124;28;20359;-77
2023/09/29 03:50:17;;;;;;;8.05;6.60;;;17.70;1.00;;;;;;5017771;28;20068;-77
2023/09/29 03:52:45;;;;;;;7.95;7.03;;;17.80;1.00;;;;;;5019101;28;20069;-77
2023/09/29 03:55:12;;;;;;;6.90;6.00;;;17.80;1.00;;;;;;5000981;28;20481;-77
2023/09/29 03:57:38;;;;;;;9.02;6.72;;;17.80;1.00;;;;;;4933969;28;20039;-77
2023/09/29 04:00:11;;;;;;;9.15;6.88;;;17.80;1.00;;;;;;4914880;28;20593;-77
2023/09/29 04:02:40;;;;;;;9.68;6.53;;;17.80;1.00;;;;;;5019926;28;20075;-78
2023/09/29 04:05:05;;;;;;;8.93;6.90;;;17.80;1.00;;;;;;5019276;28;20021;-77
2023/09/29 04:07:36;;;;;;;8.80;6.88;;;17.80;1.00;;;;;;5018425;28;20033;-77
2023/09/29 04:10:02;;;;;;;10.43;6.88;;;17.80;1.00;;;;;;4986741;28;20022;-77
2023/09/29 04:12:28;;;;;;;13.40;6.68;;;17.90;1.00;;;;;;4934803;28;20031;-77
2023/09/29 04:14:54;;;;;;;8.13;6.40;;;17.90;1.00;;;;;;4939421;28;20017;-77
2023/09/29 04:17:20;;;;;;;9.57;7.13;;;17.80;1.00;;;;;;5017808;28;20061;-77
2023/09/29 04:19:46;;;;;;;10.80;7.03;;;17.80;1.00;;;;;;5018933;28;20497;-77
2023/09/29 04:22:11;;;;;;;8.60;6.65;;;17.90;1.00;;;;;;4988758;28;20036;-77
2023/09/29 04:24:39;;;;;;;7.03;6.35;;;17.90;1.00;;;;;;5021787;28;20022;-77
2023/09/29 04:27:05;;;;;;;9.40;6.78;;;17.90;1.00;;;;;;5017120;28;20058;-77
2023/09/29 04:29:31;;;;;;;10.85;6.63;;;17.90;1.00;;;;;;5020553;28;20545;-77
2023/09/29 04:31:56;;;;;;;10.80;7.50;;;17.90;1.00;;;;;;5016237;28;20156;-77
2023/09/29 04:34:23;;;;;;;11.05;7.32;;;17.90;1.00;;;;;;5022314;28;20030;-77
2023/09/29 04:36:48;;;;;;;8.75;7.10;;;17.90;1.00;;;;;;5016529;28;20030;-78
2023/09/29 04:39:15;;;;;;;7.97;6.45;;;17.90;1.00;;;;;;5022041;28;20030;-78
2023/09/29 04:41:41;;;;;;;7.07;6.57;;;17.90;1.00;;;;;;4961261;28;20051;-78
2023/09/29 04:44:07;;;;;;;10.02;6.82;;;17.80;1.00;;;;;;4966095;28;20059;-77
2023/09/29 04:46:35;;;;;;;8.00;6.63;;;17.80;1.00;;;;;;4985306;28;20395;-77
2023/09/29 04:49:03;;;;;;;9.85;6.57;;;17.80;1.00;;;;;;4996672;28;20399;-77
2023/09/29 04:51:33;;;;;;;10.65;6.78;;;17.90;1.00;;;;;;5019082;28;20009;-77
2023/09/29 04:53:59;;;;;;;9.27;7.55;;;17.90;1.00;;;;;;5023911;28;20033;-77
2023/09/29 04:56:26;;;;;;;7.65;6.78;;;17.90;1.00;;;;;;5019380;28;20489;-77
2023/09/29 04:58:51;;;;;;;8.20;6.70;;;17.90;1.00;;;;;;5025480;28;20535;-77
2023/09/29 05:01:21;;;;;;;11.55;6.97;;;17.90;1.00;;;;;;5003397;28;20029;-77
2023/09/29 05:03:51;;;;;;;10.48;7.70;;;17.90;1.00;;;;;;5017917;28;20028;-77
2023/09/29 05:06:17;;;;;;;13.18;7.10;;;17.90;1.00;;;;;;5015420;28;20107;-77
2023/09/29 05:08:44;;;;;;;9.15;6.47;;;17.90;1.00;;;;;;4928839;28;20138;-77
2023/09/29 05:11:22;;;;;;;8.80;6.53;;;17.90;1.00;;;;;;4941029;28;20026;-78
2023/09/29 05:13:49;;;;;;;7.57;6.78;;;17.90;1.00;;;;;;5019219;28;20018;-77
2023/09/29 05:16:15;;;;;;;11.70;6.70;;;17.90;1.00;;;;;;4986182;28;20462;-78
2023/09/29 05:18:42;;;;;;;9.15;6.35;;;17.90;1.00;;;;;;4929141;28;20073;-77
2023/09/29 05:21:09;;;;;;;9.13;6.38;;;17.90;1.00;;;;;;5011348;28;20046;-77
2023/09/29 05:23:35;;;;;;;8.90;6.50;;;17.90;1.00;;;;;;5016416;28;20026;-77
2023/09/29 05:26:04;;;;;;;9.88;6.70;;;18.00;99.90;;;;;;5015891;28;20041;-77
2023/09/29 05:28:30;;;;;;;8.75;6.90;;;18.00;99.90;;;;;;4923393;28;20015;-78
2023/09/29 05:30:56;;;;;;;13.20;6.90;;;18.00;99.90;;;;;;4950833;28;20059;-77
2023/09/29 05:33:22;;;;;;;11.70;6.47;;;18.00;1.00;;;;;;4928245;28;20087;-77
2023/09/29 05:35:47;;;;;;;9.82;6.75;;;18.00;99.90;;;;;;4938155;28;20028;-77
2023/09/29 05:38:13;;;;;;;14.80;7.95;;;18.00;99.90;;;;;;4928215;28;20046;-77
2023/09/29 05:40:39;;;;;;;8.52;7.18;;;18.00;99.90;;;;;;4943233;28;20482;-77
2023/09/29 05:43:09;;;;;;;7.97;6.88;;;18.10;99.90;;;;;;4938323;28;20082;-78
2023/09/29 05:45:44;;;;;;;10.65;6.60;;;18.10;99.90;;;;;;4930604;28;20024;-77
2023/09/29 05:48:10;;;;;;;10.65;6.78;;;18.10;99.90;;;;;;5003683;28;20031;-77
2023/09/29 05:50:36;;;;;;;11.48;7.15;;;18.10;99.90;;;;;;5020409;28;20496;-77
2023/09/29 05:53:03;;;;;;;14.90;7.00;;;18.10;99.90;;;;;;5024116;28;20020;-77
2023/09/29 05:55:31;;;;;;;12.70;6.85;;;18.10;99.90;;;;;;5017445;28;20028;-77
2023/09/29 05:57:57;;;;;;;8.07;6.70;;;18.10;99.90;;;;;;5020169;28;20037;-77
2023/09/29 06:00:24;;;;;;;7.75;6.85;;;18.10;99.90;;;;;;5017418;28;20026;-77
2023/09/29 06:02:50;;;;;;;13.45;6.95;;;18.10;99.90;;;;;;4936519;28;20394;-77
2023/09/29 06:05:16;;;;;;;9.77;7.40;;;18.20;99.90;;;;;;4990777;28;20028;-77
2023/09/29 06:07:42;;;;;;;8.10;6.80;;;18.20;99.90;;;;;;4958931;28;20372;-78
2023/09/29 06:10:08;;;;;;;14.75;8.07;;;18.20;1.00;;;;;;4923293;28;20392;-77
2023/09/29 06:12:34;;;;;;;10.73;7.43;;;18.10;99.90;;;;;;4954540;28;20031;-77
2023/09/29 06:15:03;;;;;;;8.07;7.07;;;18.20;1.00;;;;;;4927349;28;20029;-77
2023/09/29 06:17:29;;;;;;;14.43;7.03;;;18.20;1.00;;;;;;4948516;28;20086;-77
2023/09/29 06:19:55;;;;;;;8.02;7.18;;;18.20;1.00;;;;;;4933759;28;20025;-77
2023/09/29 06:22:21;;;;;;;12.73;7.38;;;18.30;99.90;;;;;;5021859;28;20559;-78
2023/09/29 06:24:47;;;;;;;10.38;6.55;;;18.30;99.90;;;;;;5031856;28;20366;-77
2023/09/29 06:27:13;;;;;;;7.78;7.05;;;18.40;99.90;;;;;;5013831;28;20030;-77
2023/09/29 06:29:39;;;;;;;12.55;6.90;;;18.40;99.90;;;;;;5022115;28;20470;-77
2023/09/29 06:32:11;;;;;;;8.60;6.78;;;18.50;99.90;;;;;;4914158;28;20021;-77
2023/09/29 06:34:39;;;;;;;10.93;6.90;;;18.50;99.90;;;;;;5013857;28;20030;-77
2023/09/29 06:37:05;;;;;;;7.80;6.63;;;18.60;99.90;;;;;;5015077;28;20544;-77
2023/09/29 06:39:31;;;;;;;8.65;6.53;;;18.70;99.90;;;;;;4933207;28;20111;-77
2023/09/29 06:41:56;;;;;;;7.32;6.60;;;18.70;99.90;;;;;;5009043;28;20071;-77
2023/09/29 06:44:26;;;;;;;8.35;7.10;;;18.70;99.90;;;;;;5013602;28;20493;-77
2023/09/29 06:46:52;;;;;;;10.40;6.25;;;18.80;99.90;;;;;;4986151;28;20101;-78
2023/09/29 06:49:18;;;;;;;11.45;7.57;;;18.80;99.90;;;;;;4976067;28;20547;-77
2023/09/29 06:51:44;;;;;;;12.45;6.75;;;18.90;99.90;;;;;;4923155;28;20154;-77
2023/09/29 06:54:10;;;;;;;10.50;6.85;;;19.00;99.90;;;;;;5007905;28;20014;-77
2023/09/29 06:56:36;;;;;;;11.93;7.22;;;19.10;99.90;;;;;;4903612;28;20074;-77
2023/09/29 06:59:02;;;;;;;7.60;5.90;;;19.10;99.90;;;;;;4905258;29;20016;-77
2023/09/29 07:01:28;;;;;;;14.32;6.50;;;19.20;99.90;;;;;;4907862;28;20033;-78
2023/09/29 07:03:54;;;;;;;7.60;6.18;;;19.20;99.90;;;;;;5012234;28;20032;-77
2023/09/29 07:06:24;;;;;;;13.82;6.47;;;19.30;99.90;;;;;;5005116;28;20033;-77
2023/09/29 07:08:50;;;;;;;8.38;6.10;;;19.30;99.90;;;;;;5011831;28;20021;-77
2023/09/29 07:11:16;;;;;;;7.28;6.53;;;19.40;99.90;;;;;;4989591;28;20028;-77
2023/09/29 07:13:42;;;;;;;11.90;6.28;;;19.40;99.90;;;;;;4904966;29;20036;-77
2023/09/29 07:16:08;;;;;;;13.95;6.22;;;19.50;99.90;;;;;;4992708;28;20025;-77
2023/09/29 07:18:34;;;;;;;7.05;5.68;;;19.50;99.90;;;;;;5007629;28;20018;-77
2023/09/29 07:20:59;;;;;;;13.90;6.80;;;19.50;99.90;;;;;;5004660;28;20069;-77
2023/09/29 07:23:25;;;;;;;11.10;5.80;;;19.60;99.90;;;;;;5022123;28;20056;-77
2023/09/29 07:25:52;;;;;;;6.85;6.15;;;19.60;99.90;;;;;;5009296;28;20037;-78
2023/09/29 07:28:19;;;;;;;8.70;6.18;;;19.70;99.90;;;;;;5012993;28;20018;-76
2023/09/29 07:30:49;;;;;;;12.15;6.25;;;19.70;99.90;;;;;;5005463;28;20011;-76
2023/09/29 07:33:15;;;;;;;7.75;6.15;;;19.80;99.90;;;;;;4990935;28;20026;-76
2023/09/29 07:35:44;;;;;;;13.25;6.18;;;19.80;99.90;;;;;;5008926;28;20033;-76
2023/09/29 07:38:10;;;;;;;9.35;6.10;;;19.90;99.90;;;;;;5018734;28;20018;-77
2023/09/29 07:40:37;;;;;;;11.02;6.28;;;19.90;99.90;;;;;;5020755;28;20033;-77
2023/09/29 07:43:04;;;;;;;7.18;6.25;;;19.90;99.90;;;;;;5017884;28;20026;-77
2023/09/29 07:45:30;;;;;;;6.80;6.13;;;19.90;99.90;;;;;;5015847;28;20092;-77
2023/09/29 07:47:56;;;;;;;8.55;6.18;;;20.00;99.90;;;;;;5019017;28;20167;-77
2023/09/29 07:50:23;;;;;;;10.70;6.18;;;20.00;99.90;;;;;;5013568;28;20026;-77
2023/09/29 07:52:48;;;;;;;8.93;6.57;;;20.00;99.90;;;;;;4940226;28;20103;-76
2023/09/29 07:55:14;;;;;;;7.75;6.25;;;20.00;99.90;;;;;;4927057;28;20148;-76
2023/09/29 07:57:40;;;;;;;7.82;5.95;;;20.10;99.90;;;;;;4938628;28;20111;-76
2023/09/29 08:00:09;;;;;;;6.75;6.05;;;20.10;99.90;;;;;;4995524;28;20018;-76
2023/09/29 08:02:34;;;;;;;7.10;5.65;;;20.20;99.90;;;;;;5016595;28;20087;-76
2023/09/29 08:05:01;;;;;;;8.90;5.70;;;20.20;99.90;;;;;;5017397;28;20485;-74
2023/09/29 08:07:27;;;;;;;11.82;6.35;;;20.30;99.90;;;;;;5021401;28;20400;-74
2023/09/29 08:09:53;;;;;;;8.13;6.05;;;20.40;99.90;;;;;;4989865;28;20026;-74
2023/09/29 08:12:19;;;;;;;7.57;6.72;;;20.50;99.90;;;;;;4921923;28;20024;-74
2023/09/29 08:14:45;;;;;;;8.68;5.70;;;20.60;99.90;;;;;;4987476;28;20029;-74
2023/09/29 08:17:11;;;;;;;10.90;6.43;;;20.60;99.90;;;;;;4984254;28;20600;-74
2023/09/29 08:19:37;;;;;;;8.55;5.68;;;20.60;99.90;;;;;;5016723;28;20034;-74
2023/09/29 08:22:03;;;;;;;9.88;5.68;;;20.80;99.90;;;;;;4956356;28;1206124;-74
2023/09/29 08:24:32;;;;;;;11.88;6.28;;;20.80;99.90;;;;;;5024342;28;20051;-74
2023/09/29 08:26:58;;;;;;;7.93;5.65;;;20.70;99.90;;;;;;5021583;28;20485;-74
2023/09/29 08:29:24;;;;;;;14.30;6.32;;;20.70;99.90;;;;;;5023757;28;20021;-74
2023/09/29 08:31:50;;;;;;;10.10;6.10;;;20.90;10.20;;;;;;5021458;28;20026;-74
2023/09/29 08:34:15;;;;;;;10.95;6.07;;;21.00;49.40;;;;;;5022197;28;20025;-74
2023/09/29 08:36:41;;;;;;;16.65;6.38;;;21.10;1.00;;;;;;5008941;28;20037;-74
2023/09/29 08:39:07;;;;;;;11.60;7.00;;;21.30;99.90;;;;;;5025431;28;20025;-74
2023/09/29 08:41:36;;;;;;;7.78;6.38;;;21.20;1.00;;;;;;5019201;28;20030;-74
2023/09/29 08:44:06;;;;;;;10.75;6.22;;;21.20;1.00;;;;;;5024827;28;20101;-74
2023/09/29 08:46:34;;;;;;;10.38;6.65;;;21.30;1.00;;;;;;5019168;28;20030;-74
2023/09/29 08:49:03;;;;;;;13.02;7.07;;;21.20;31.40;;;;;;5022292;28;20026;-74
2023/09/29 08:51:32;;;;;;;11.77;6.32;;;21.20;23.20;;;;;;5022224;28;20025;-74
2023/09/29 08:53:59;;;;;;;11.93;5.78;;;21.20;1.00;;;;;;4929436;28;20506;-74
2023/09/29 08:56:25;;;;;;;11.57;6.20;;;21.20;1.00;;;;;;4971622;28;20055;-74
2023/09/29 08:58:51;;;;;;;5.70;5.03;;;21.30;99.90;;;;;;5022112;28;20068;-74
2023/09/29 09:01:17;;;;;;;7.03;5.32;;;21.30;99.90;;;;;;5020913;28;20580;-74
2023/09/29 09:03:42;;;;;;;7.13;5.63;;;21.30;1.00;;;;;;5021772;28;20105;-74
2023/09/29 09:06:25;;;;;;;14.15;5.53;;;21.30;99.90;;;;;;5021115;28;20096;-74
2023/09/29 09:08:52;;;;;;;7.20;6.18;;;21.50;99.90;;;;;;5020941;28;20028;-74
2023/09/29 09:11:18;;;;;;;13.43;5.43;;;21.60;99.90;;;;;;5020800;28;20118;-74
2023/09/29 09:14:03;;;;;;;12.20;6.00;;;21.70;99.90;;;;;;5022621;28;20022;-74
2023/09/29 09:16:32;;;;;;;6.40;5.70;;;21.80;99.90;;;;;;5018669;28;20044;-74
2023/09/29 09:19:11;;;;;;;7.95;5.80;;;21.90;99.90;;;;;;5024404;28;20113;-74
2023/09/29 09:21:37;;;;;;;11.75;6.25;;;21.90;99.90;;;;;;5015553;28;20045;-74
2023/09/29 09:24:04;;;;;;;10.93;5.78;;;21.80;99.90;;;;;;4934151;28;20047;-74
2023/09/29 09:26:30;;;;;;;9.40;5.70;;;21.90;99.90;;;;;;4948062;28;20028;-73
2023/09/29 09:29:08;;;;;;;10.40;5.82;;;21.80;99.90;;;;;;4986966;28;20025;-74
2023/09/29 09:31:51;;;;;;;19.27;6.55;;;21.90;99.90;;;;;;5016838;28;20029;-74
2023/09/29 09:34:16;;;;;;;;;;;21.90;99.90;;;;;;5022732;28;20025;-74
2023/09/29 09:36:55;;;;;;;23.02;7.25;;;21.90;1.00;;;;;;5004920;28;19911;-74
2023/09/29 09:39:22;;;;;;;11.23;6.25;;;21.90;99.90;;;;;;5024954;28;20485;-74
2023/09/29 09:41:54;;;;;;;12.45;6.13;;;21.90;1.00;;;;;;4947403;28;20095;-74
2023/09/29 09:44:21;;;;;;;11.38;6.68;;;22.00;1.00;;;;;;4923381;28;20032;-74
2023/09/29 09:46:53;;;;;;;7.63;5.95;;;22.00;1.00;;;;;;5006168;28;20030;-73
2023/09/29 09:49:29;;;;;;;8.30;5.47;;;21.90;99.90;;;;;;5017854;28;20108;-74
2023/09/29 09:52:01;;;;;;;9.52;5.40;;;21.90;99.90;;;;;;5017731;28;20489;-74
2023/09/29 09:54:31;;;;;;;9.02;5.45;;;22.00;99.90;;;;;;5024705;28;20100;-74
2023/09/29 09:57:05;;;;;;;12.32;5.82;;;21.90;99.90;;;;;;5003100;28;20030;-74
2023/09/29 09:59:33;;;;;;;6.95;6.07;;;22.00;99.90;;;;;;5021512;28;20025;-74
2023/09/29 10:02:00;;;;;;;17.08;5.72;;;22.20;99.90;;;;;;5020089;28;20424;-74
2023/09/29 10:04:28;;;;;;;6.20;5.60;;;22.40;99.90;;;;;;5019222;28;20386;-74
2023/09/29 10:06:59;;;;;;;7.65;5.43;;;22.50;99.90;;;;;;5020727;28;20456;-74
2023/09/29 10:09:26;;;;;;;6.38;5.72;;;22.60;99.90;;;;;;5000803;28;20105;-74
2023/09/29 10:12:01;;;;;;;15.27;6.10;;;22.70;99.90;;;;;;5018352;28;20030;-74
2023/09/29 10:14:27;;;;;;;8.40;5.43;;;22.70;99.90;;;;;;5021931;28;20026;-74
2023/09/29 10:17:03;;;;;;;7.45;5.43;;;22.60;99.90;;;;;;5017843;28;20029;-74
2023/09/29 10:19:38;;;;;;;10.80;5.63;;;22.60;99.90;;;;;;5015923;28;20037;-74
2023/09/29 10:22:06;;;;;;;6.22;5.45;;;22.60;99.90;;;;;;5022234;28;20497;-74
2023/09/29 10:24:31;;;;;;;9.93;5.35;;;22.60;99.90;;;;;;5020834;28;20026;-74
2023/09/29 10:27:11;;;;;;;6.93;5.50;;;22.70;99.90;;;;;;5019199;28;20023;-74
2023/09/29 10:29:38;;;;;;;6.43;5.78;;;22.70;99.90;;;;;;5003905;28;20075;-74
2023/09/29 10:32:13;;;;;;;11.55;5.43;;;22.80;99.90;;;;;;5019458;28;20100;-74
2023/09/29 10:34:40;;;;;;;7.63;5.03;;;22.70;93.20;;;;;;5017165;28;20041;-74
2023/09/29 10:37:15;;;;;;;7.57;4.95;;;22.70;99.90;;;;;;5019373;28;20432;-74
2023/09/29 10:39:44;;;;;;;11.30;5.05;;;22.80;72.40;;;;;;5022601;28;20032;-74
2023/09/29 10:42:15;;;;;;;7.05;5.43;;;22.80;53.20;;;;;;4946408;28;20032;-74
2023/09/29 10:44:56;;;;;;;5.28;4.65;;;22.90;41.80;;;;;;4989614;28;20088;-73
2023/09/29 10:47:33;;;;;;;7.38;4.60;;;23.00;1.00;;;;;;4986914;28;20399;-74
2023/09/29 10:50:06;;;;;;;7.53;5.10;;;23.10;1.00;;;;;;4927494;28;20489;-74
2023/09/29 10:52:32;;;;;;;6.97;5.60;;;23.20;1.00;;;;;;4945560;28;20027;-74
2023/09/29 10:54:59;;;;;;;10.65;5.70;;;23.20;1.00;;;;;;4934025;28;20499;-74
2023/09/29 10:57:28;;;;;;;6.05;5.50;;;23.30;6.70;;;;;;4990923;28;20065;-74
2023/09/29 10:59:59;;;;;;;6.72;5.03;;;23.30;1.00;;;;;;5005012;28;20030;-74
2023/09/29 11:02:30;;;;;;;13.15;5.35;;;23.30;9.60;;;;;;5020549;28;20032;-74
2023/09/29 11:04:59;;;;;;;9.98;5.50;;;23.30;11.80;;;;;;5002747;28;20024;-74
2023/09/29 11:07:29;;;;;;;7.70;5.30;;;23.30;1.00;;;;;;4936876;28;20109;-74
2023/09/29 11:09:56;;;;;;;12.32;6.30;;;23.40;1.00;;;;;;4925774;28;20046;-74
2023/09/29 11:12:26;;;;;;;10.35;5.90;;;23.40;6.90;;;;;;5022150;28;20049;-74
2023/09/29 11:14:53;;;;;;;6.00;5.40;;;23.40;42.90;;;;;;5019121;28;20382;-74
2023/09/29 11:17:19;;;;;;;10.70;6.10;;;23.50;85.90;;;;;;5019512;28;20029;-74
2023/09/29 11:19:58;;;;;;;6.85;5.38;;;23.50;36.80;;;;;;4924588;28;20095;-74
2023/09/29 11:22:25;;;;;;;10.30;5.45;;;23.60;22.90;;;;;;5020799;28;20026;-74
2023/09/29 11:24:51;;;;;;;15.52;5.88;;;23.50;67.10;;;;;;4992999;28;20032;-74
2023/09/29 11:27:20;;;;;;;9.93;5.22;;;23.60;22.60;;;;;;4952942;28;20032;-74
2023/09/29 11:29:45;;;;;;;7.65;5.28;;;23.70;21.10;;;;;;4925572;28;20480;-74
2023/09/29 11:32:11;;;;;;;6.80;5.47;;;23.80;1.00;;;;;;4956327;28;20026;-74
2023/09/29 11:34:37;;;;;;;10.65;5.53;;;23.80;1.00;;;;;;4922905;28;20095;-74
2023/09/29 11:37:04;;;;;;;12.43;5.20;;;23.90;1.00;;;;;;5002699;28;20030;-74
2023/09/29 11:39:30;;;;;;;9.88;5.43;;;24.00;1.00;;;;;;5002072;28;20092;-74
2023/09/29 11:41:57;;;;;;;9.18;5.72;;;24.10;1.00;;;;;;4967121;28;20040;-74
2023/09/29 11:44:23;;;;;;;9.95;5.82;;;24.00;1.00;;;;;;5022238;28;20037;-74
2023/09/29 11:46:49;;;;;;;15.10;5.88;;;24.00;1.00;;;;;;5015564;28;20382;-74
2023/09/29 11:49:15;;;;;;;65.88;10.25;;;24.10;1.00;;;;;;5021726;28;20102;-74
2023/09/29 11:51:40;;;;;;;9.27;5.28;;;24.20;1.00;;;;;;5018686;28;20049;-74
2023/09/29 11:54:06;;;;;;;8.55;5.13;;;24.20;1.00;;;;;;5022532;28;20033;-74
2023/09/29 11:56:32;;;;;;;7.15;4.75;;;24.30;1.00;;;;;;5014813;28;20026;-74
2023/09/29 11:58:58;;;;;;;8.32;5.30;;;24.30;1.00;;;;;;5024856;28;20022;-74
2023/09/29 12:01:26;;;;;;;8.05;5.18;;;24.30;1.00;;;;;;5024128;28;20056;-74
2023/09/29 12:03:52;;;;;;;9.20;5.68;;;24.40;1.00;;;;;;4988741;28;20023;-74
2023/09/29 12:06:18;;;;;;;16.60;5.22;;;24.40;1.00;;;;;;4959892;28;20027;-74
2023/09/29 12:08:43;;;;;;;8.80;4.88;;;24.40;1.00;;;;;;5022455;28;20401;-74
2023/09/29 12:11:09;;;;;;;8.90;5.50;;;24.30;1.00;;;;;;5022986;28;20029;-74
2023/09/29 12:13:39;;;;;;;8.07;5.03;;;24.40;1.00;;;;;;5023339;28;20014;-74
2023/09/29 12:16:07;;;;;;;7.82;5.30;;;24.40;1.00;;;;;;5023892;28;20157;-74
2023/09/29 12:18:33;;;;;;;6.15;5.50;;;24.40;1.00;;;;;;5023645;28;20128;-74
2023/09/29 12:21:05;;;;;;;6.70;5.28;;;24.40;1.00;;;;;;4945979;28;20056;-74
2023/09/29 12:23:31;;;;;;;13.88;5.28;;;24.50;1.00;;;;;;4932909;28;20027;-74
2023/09/29 12:25:57;;;;;;;6.43;5.75;;;24.50;1.00;;;;;;4942932;28;20028;-74
2023/09/29 12:28:23;;;;;;;8.65;5.20;;;24.40;1.00;;;;;;4924055;28;20024;-73
2023/09/29 12:30:48;;;;;;;8.43;5.40;;;24.40;1.00;;;;;;4950713;28;20498;-74
2023/09/29 12:33:14;;;;;;;6.85;5.43;;;24.50;1.00;;;;;;4936872;28;20495;-74
2023/09/29 12:35:40;;;;;;;10.40;5.68;;;24.40;1.00;;;;;;4934119;28;20499;-74
2023/09/29 12:38:06;;;;;;;10.07;4.93;;;24.50;1.00;;;;;;4938974;28;20090;-74
2023/09/29 12:40:33;;;;;;;9.40;5.63;;;24.40;1.00;;;;;;4997222;28;20049;-74
2023/09/29 12:43:00;;;;;;;13.02;5.70;;;24.40;1.00;;;;;;5006932;28;20493;-74
2023/09/29 12:45:25;;;;;;;10.07;5.60;;;24.40;1.00;;;;;;4988542;28;20024;-74
2023/09/29 12:47:53;;;;;;;6.63;5.13;;;24.40;1.00;;;;;;4950197;28;20030;-74
2023/09/29 12:50:20;;;;;;;10.85;5.00;;;24.40;1.00;;;;;;4933286;28;20026;-74